Time;durP1;ratioP1;P1;durP2;ratioP2;P2;SDS_P1;SDS_P2;PMS_P1;PMS_P2;Temp;Humidity;BMP_temperature;BMP_pressure;BME280_temperature;BME280_humidity;BME280_pressure;Samples;Min_cycle;Max_cycle;Signal;HPM_P1;HPM_P2
2022/03/28 00:02:44;;;;;;;9.73;3.80;;;;;;;5.37;54.04;101721.91;18305992;32;20101;-66
2022/03/28 00:12:48;;;;;;;14.27;6.53;;;;;;;5.34;53.80;101706.25;18304946;32;20101;-66
2022/03/28 00:22:52;;;;;;;11.77;5.15;;;;;;;5.22;53.66;101727.34;18304171;32;20102;-66
2022/03/28 00:32:56;;;;;;;13.00;4.87;;;;;;;5.46;53.43;101720.50;18304203;32;20094;-66
2022/03/28 00:43:01;;;;;;;7.82;3.10;;;;;;;4.97;55.33;101713.38;18303738;32;20106;-66
2022/03/28 00:53:06;;;;;;;10.60;4.40;;;;;;;4.52;56.58;101700.25;18304761;32;20094;-66
2022/03/28 01:03:11;;;;;;;23.23;10.05;;;;;;;4.38;56.52;101694.47;18302491;32;20145;-66
2022/03/28 01:13:16;;;;;;;18.20;6.85;;;;;;;4.27;57.39;101687.13;18302329;32;20116;-66
2022/03/28 01:23:21;;;;;;;9.73;4.62;;;;;;;4.24;57.20;101668.88;18301650;32;20101;-66
2022/03/28 01:33:24;;;;;;;11.82;5.22;;;;;;;3.87;58.52;101673.28;18301421;32;20082;-66
2022/03/28 01:43:29;;;;;;;9.35;3.95;;;;;;;3.78;59.17;101669.38;18300325;32;20102;-66
2022/03/28 01:53:33;;;;;;;10.23;4.47;;;;;;;3.88;58.80;101663.81;18300259;32;20138;-66
2022/03/28 02:03:37;;;;;;;9.23;3.90;;;;;;;3.66;59.09;101660.25;18299528;32;20101;-66
2022/03/28 02:13:40;;;;;;;6.97;3.75;;;;;;;3.48;59.33;101649.97;18306364;32;20502;-66
2022/03/28 02:23:45;;;;;;;10.50;4.25;;;;;;;3.45;59.62;101649.81;18307814;32;20111;-66
2022/03/28 02:33:48;;;;;;;10.82;4.00;;;;;;;3.53;59.97;101651.06;18307603;32;20379;-66
2022/03/28 02:43:53;;;;;;;10.93;4.03;;;;;;;3.29;60.87;101645.62;18307249;32;20103;-66
2022/03/28 02:53:56;;;;;;;7.37;3.03;;;;;;;3.09;60.99;101648.13;18308283;32;20097;-66
2022/03/28 03:04:01;;;;;;;5.85;3.15;;;;;;;3.16;60.57;101638.97;18306752;32;20133;-66
2022/03/28 03:14:05;;;;;;;6.57;4.35;;;;;;;3.02;60.81;101638.31;18306479;32;20144;-66
2022/03/28 03:24:09;;;;;;;8.73;3.60;;;;;;;2.69;61.92;101635.84;18304939;32;20121;-66
2022/03/28 03:34:13;;;;;;;8.45;4.20;;;;;;;2.76;61.75;101628.50;18305787;32;20131;-66
2022/03/28 03:44:17;;;;;;;7.05;3.53;;;;;;;2.39;62.83;101623.19;18305754;32;20108;-66
2022/03/28 03:54:20;;;;;;;8.27;3.22;;;;;;;2.41;62.73;101619.84;18306639;32;20131;-65
2022/03/28 04:04:25;;;;;;;7.45;3.42;;;;;;;2.45;62.60;101619.22;18305082;32;20097;-66
2022/03/28 04:14:28;;;;;;;6.95;4.25;;;;;;;2.74;62.20;101624.06;18304840;32;20112;-66
2022/03/28 04:24:33;;;;;;;10.90;4.03;;;;;;;2.56;62.87;101616.31;18304276;32;20108;-65
2022/03/28 04:34:36;;;;;;;8.07;4.30;;;;;;;2.35;63.10;101607.56;18304013;32;20201;-66
2022/03/28 04:44:41;;;;;;;9.65;4.85;;;;;;;2.44;62.24;101616.56;18303915;32;20093;-65
2022/03/28 04:54:44;;;;;;;13.57;5.25;;;;;;;2.47;62.35;101617.59;18303572;32;20085;-66
2022/03/28 05:04:49;;;;;;;13.00;6.25;;;;;;;2.62;62.04;101612.34;18303070;32;20363;-65
2022/03/28 05:14:53;;;;;;;15.18;5.20;;;;;;;2.95;62.65;101600.16;18302387;32;20378;-65
2022/03/28 05:24:58;;;;;;;19.25;5.15;;;;;;;3.24;61.35;101608.41;18302351;32;20410;-65
2022/03/28 05:35:01;;;;;;;27.58;12.55;;;;;;;3.61;59.62;101605.81;18301160;32;20350;-65
2022/03/28 05:45:08;;;;;;;33.80;16.77;;;;;;;5.50;55.99;101604.13;18303759;32;20108;-66
2022/03/28 05:55:12;;;;;;;21.33;8.80;;;;;;;8.35;49.56;101596.75;18308691;32;20081;-66
2022/03/28 06:05:16;;;;;;;22.13;10.75;;;;;;;10.62;43.68;101593.81;18304441;32;20140;-67
2022/03/28 06:15:20;;;;;;;18.77;10.75;;;;;;;13.78;35.58;101581.31;18307746;32;20102;-67
2022/03/28 06:25:25;;;;;;;14.60;7.53;;;;;;;15.74;31.16;101573.31;18304707;32;20101;-67
2022/03/28 06:35:35;;;;;;;14.25;6.60;;;;;;;17.94;27.26;101561.63;18306106;32;20086;-67
2022/03/28 06:45:40;;;;;;;11.95;5.68;;;;;;;21.87;22.80;101539.59;18307791;32;20176;-68
2022/03/28 06:55:43;;;;;;;11.23;4.53;;;;;;;22.51;20.02;101544.63;18306707;32;20156;-68
2022/03/28 07:05:48;;;;;;;10.40;4.28;;;;;;;21.90;20.13;101534.16;18341715;32;20422;-69
2022/03/28 07:15:51;;;;;;;9.30;4.20;;;;;;;18.74;21.33;101545.37;18290941;32;20120;-68
2022/03/28 07:25:56;;;;;;;11.20;4.30;;;;;;;17.53;23.63;101556.84;18304825;32;20120;-68
2022/03/28 07:36:00;;;;;;;8.38;3.33;;;;;;;18.02;21.38;101550.03;18305180;32;20097;-67
2022/03/28 07:46:04;;;;;;;10.25;4.93;;;;;;;19.60;19.86;101528.69;18305105;32;20177;-67
2022/03/28 07:56:08;;;;;;;10.07;4.28;;;;;;;21.12;18.26;101521.44;18305416;32;20111;-67
2022/03/28 08:06:13;;;;;;;10.30;4.55;;;;;;;19.46;20.09;101518.41;18304086;32;20125;-67
2022/03/28 08:16:16;;;;;;;7.68;3.05;;;;;;;19.75;21.05;101508.94;18303460;32;20175;-65
2022/03/28 08:26:21;;;;;;;9.40;3.78;;;;;;;16.85;22.37;101503.09;18303923;32;20097;-65
2022/03/28 08:36:24;;;;;;;7.15;2.70;;;;;;;17.07;24.39;101489.69;18303863;32;20093;-65
2022/03/28 08:46:30;;;;;;;16.08;3.90;;;;;;;17.74;21.61;101478.28;18303238;32;20094;-64
2022/03/28 08:56:33;;;;;;;10.35;3.53;;;;;;;17.45;22.53;101476.88;18303414;32;20134;-65
2022/03/28 09:06:46;;;;;;;7.68;2.92;;;;;;;18.32;21.28;101456.22;18298733;32;20644;-65
2022/03/28 09:17:00;;;;;;;7.68;3.35;;;;;;;18.69;22.04;101435.28;18289226;32;20104;-65
2022/03/28 09:27:17;;;;;;;8.00;3.10;;;;;;;18.17;22.45;101429.19;18301799;32;20109;-66
2022/03/28 09:37:20;;;;;;;8.75;3.40;;;;;;;20.36;20.15;101402.34;18308524;32;20454;-65
2022/03/28 09:47:26;;;;;;;13.80;4.05;;;;;;;20.49;20.19;101393.13;18307549;32;20085;-66
2022/03/28 09:57:31;;;;;;;11.68;4.25;;;;;;;22.54;17.89;101383.09;18298996;32;20094;-66
2022/03/28 10:07:37;;;;;;;14.75;4.93;;;;;;;25.15;15.56;101357.12;18308305;32;20439;-66
2022/03/28 10:17:41;;;;;;;9.70;4.03;;;;;;;24.88;16.57;101342.31;18307705;32;20102;-66
2022/03/28 10:27:46;;;;;;;8.85;3.22;;;;;;;24.63;15.78;101322.13;18306120;32;20177;-66
2022/03/28 10:37:52;;;;;;;8.70;3.53;;;;;;;24.71;16.76;101292.38;18308197;32;20144;-65
2022/03/28 10:47:58;;;;;;;9.10;3.75;;;;;;;25.43;16.33;101265.75;18307071;32;20374;-66
2022/03/28 10:58:09;;;;;;;9.10;3.58;;;;;;;25.92;16.47;101240.06;18282248;32;20101;-65
2022/03/28 11:08:33;;;;;;;10.40;4.32;;;;;;;24.57;18.75;101228.12;18306579;32;20442;-65
2022/03/28 11:18:36;;;;;;;9.63;3.53;;;;;;;22.94;21.58;101225.44;18304014;32;20370;-65
2022/03/28 11:28:41;;;;;;;8.63;3.58;;;;;;;22.66;22.77;101195.53;18288307;32;20118;-65
2022/03/28 11:38:45;;;;;;;7.82;3.42;;;;;;;22.28;23.62;101176.59;18241104;32;20113;-65
2022/03/28 11:48:58;;;;;;;8.93;3.78;;;;;;;21.85;24.94;101150.72;18241196;32;20086;-65
2022/03/28 11:59:07;;;;;;;9.27;3.47;;;;;;;21.81;25.54;101121.66;18241425;32;20664;-65
2022/03/28 12:09:16;;;;;;;6.05;2.78;;;;;;;21.97;25.81;101106.03;18241110;32;20093;-64
2022/03/28 12:19:21;;;;;;;8.02;2.90;;;;;;;22.30;25.13;101074.56;18263419;32;20090;-64
2022/03/28 12:29:25;;;;;;;9.32;3.00;;;;;;;22.99;24.30;101042.44;18243756;32;141908;-65
2022/03/28 12:39:29;;;;;;;5.75;2.35;;;;;;;23.51;23.98;101020.59;18367148;32;20101;-64
2022/03/28 12:49:43;;;;;;;6.47;2.72;;;;;;;23.93;23.92;100991.06;18364404;32;20159;-65
2022/03/28 12:59:52;;;;;;;5.30;2.37;;;;;;;23.81;23.90;100976.56;18361831;32;20385;-64
2022/03/28 13:09:58;;;;;;;7.72;3.00;;;;;;;23.26;24.49;100954.25;18353547;32;20104;-65
2022/03/28 13:20:04;;;;;;;5.15;2.30;;;;;;;23.56;24.06;100916.44;18295923;32;20085;-64
2022/03/28 13:30:18;;;;;;;6.95;2.67;;;;;;;24.66;22.79;100902.91;18302596;32;20160;-65
2022/03/28 13:40:23;;;;;;;6.18;2.67;;;;;;;24.14;23.59;100884.28;18299481;32;20492;-65
2022/03/28 13:50:30;;;;;;;6.57;2.70;;;;;;;24.40;22.82;100869.59;18300674;32;20118;-64
2022/03/28 14:00:55;;;;;;;4.87;2.40;;;;;;;24.41;22.72;100846.44;18300742;32;20102;-64
2022/03/28 14:11:00;;;;;;;8.45;2.85;;;;;;;24.02;23.44;100816.44;18301071;32;20097;-67
2022/03/28 14:21:03;;;;;;;6.03;2.12;;;;;;;24.11;23.23;100806.19;18308367;32;20106;-67
2022/03/28 14:31:09;;;;;;;5.65;2.42;;;;;;;24.71;22.70;100771.84;18306147;32;20328;-67
2022/03/28 14:41:13;;;;;;;6.43;2.65;;;;;;;24.86;22.38;100753.31;18307202;32;20085;-66
2022/03/28 14:51:19;;;;;;;6.03;2.55;;;;;;;24.57;22.53;100727.25;18307942;32;20105;-67
2022/03/28 15:01:24;;;;;;;8.98;2.92;;;;;;;24.37;22.93;100715.91;18307137;32;20371;-67
2022/03/28 15:11:30;;;;;;;5.20;2.60;;;;;;;24.48;22.91;100707.31;18305435;32;20098;-67
2022/03/28 15:21:33;;;;;;;9.15;2.87;;;;;;;24.32;22.95;100699.28;18304555;32;20172;-66
2022/03/28 15:31:39;;;;;;;9.52;3.00;;;;;;;23.98;23.04;100685.94;18309993;32;20102;-67
2022/03/28 15:41:44;;;;;;;7.30;2.90;;;;;;;23.75;23.46;100675.69;18327798;32;20094;-67
2022/03/28 15:51:49;;;;;;;7.37;3.50;;;;;;;23.65;23.60;100662.84;18305767;32;20109;-65
2022/03/28 16:01:52;;;;;;;6.12;2.72;;;;;;;23.56;23.83;100650.84;18305819;32;20478;-64
2022/03/28 16:12:05;;;;;;;6.53;2.53;;;;;;;23.47;23.92;100639.84;18299693;32;20390;-65
2022/03/28 16:22:09;;;;;;;7.53;3.75;;;;;;;23.19;24.43;100626.16;18365492;32;20116;-65
2022/03/28 16:32:14;;;;;;;8.75;3.12;;;;;;;22.95;24.81;100625.56;18352181;32;20471;-65
2022/03/28 16:42:17;;;;;;;7.95;3.12;;;;;;;22.68;25.25;100618.06;18326653;32;20358;-67
2022/03/28 16:52:22;;;;;;;7.00;3.15;;;;;;;22.48;25.60;100605.72;18327424;32;20105;-65
2022/03/28 17:02:32;;;;;;;6.87;2.70;;;;;;;22.08;26.37;100596.06;18327704;32;20097;-65
2022/03/28 17:12:43;;;;;;;8.40;3.55;;;;;;;21.17;27.98;100593.03;18296736;32;20571;-65
2022/03/28 17:22:48;;;;;;;8.50;3.20;;;;;;;20.49;29.34;100591.44;18295544;32;20125;-65
2022/03/28 17:32:54;;;;;;;9.93;3.80;;;;;;;19.71;30.22;100586.44;18298169;32;20098;-65
2022/03/28 17:43:03;;;;;;;10.13;4.12;;;;;;;18.99;30.99;100602.19;18305124;32;20127;-65
2022/03/28 17:53:09;;;;;;;9.95;3.67;;;;;;;18.27;32.77;100598.34;18308873;32;20089;-64
2022/03/28 18:03:13;;;;;;;8.00;3.65;;;;;;;17.64;34.03;100602.81;18305649;32;20098;-65
2022/03/28 18:13:17;;;;;;;8.05;3.17;;;;;;;16.85;35.91;100611.00;18307253;32;20124;-65
2022/03/28 18:23:21;;;;;;;14.30;3.67;;;;;;;16.07;37.54;100605.75;18307618;32;20487;-64
2022/03/28 18:33:26;;;;;;;11.30;3.83;;;;;;;15.54;38.27;100595.41;18306487;32;20094;-64
2022/03/28 18:43:30;;;;;;;10.35;3.60;;;;;;;14.89;39.30;100601.84;18330186;32;20103;-65
2022/03/28 18:53:36;;;;;;;8.75;3.50;;;;;;;14.49;39.76;100591.06;18314286;32;20090;-65
2022/03/28 19:03:45;;;;;;;6.93;3.40;;;;;;;14.07;40.28;100590.81;18323844;32;20374;-65
2022/03/28 19:13:50;;;;;;;7.22;3.55;;;;;;;13.70;41.04;100587.78;18287503;32;20492;-65
2022/03/28 19:23:53;;;;;;;8.82;3.80;;;;;;;13.00;41.86;100566.66;18335639;32;20126;-65
2022/03/28 19:33:58;;;;;;;12.37;5.37;;;;;;;12.69;42.12;100577.41;18324541;32;20116;-65
2022/03/28 19:44:22;;;;;;;8.73;3.55;;;;;;;12.76;42.58;100577.34;18322111;32;20106;-65
2022/03/28 19:54:50;;;;;;;9.20;4.25;;;;;;;12.40;42.95;100563.66;18300961;32;20094;-65
2022/03/28 20:05:14;;;;;;;10.38;4.80;;;;;;;12.15;44.30;100563.81;18298897;32;20089;-65
2022/03/28 20:15:39;;;;;;;8.63;4.35;;;;;;;11.89;44.81;100550.84;18298387;32;20457;-65
2022/03/28 20:25:42;;;;;;;12.20;4.80;;;;;;;11.74;44.48;100530.88;18301583;32;20111;-65
2022/03/28 20:35:47;;;;;;;14.27;6.50;;;;;;;11.60;44.91;100516.13;18285442;32;20168;-65
2022/03/28 20:45:52;;;;;;;11.90;5.25;;;;;;;11.52;45.39;100505.69;18299304;32;20132;-65
2022/03/28 20:55:58;;;;;;;12.73;4.85;;;;;;;11.19;45.99;100486.69;18297195;32;20094;-65
2022/03/28 21:06:02;;;;;;;15.18;6.22;;;;;;;11.03;46.33;100480.59;18286400;32;20431;-66
2022/03/28 21:16:06;;;;;;;13.62;5.82;;;;;;;10.73;47.62;100468.50;18299648;32;20094;-65
2022/03/28 21:26:10;;;;;;;15.55;5.87;;;;;;;10.77;47.78;100480.66;18298583;32;20487;-64
2022/03/28 21:36:15;;;;;;;13.60;7.22;;;;;;;10.49;49.66;100475.47;18291479;32;20115;-64
2022/03/28 21:46:18;;;;;;;17.33;7.45;;;;;;;10.44;49.75;100470.25;18295709;32;20111;-64
2022/03/28 21:56:24;;;;;;;13.90;6.35;;;;;;;10.22;50.52;100464.16;18294228;32;20438;-65
2022/03/28 22:06:27;;;;;;;13.40;6.37;;;;;;;10.31;49.76;100451.09;18291800;32;20671;-65
2022/03/28 22:16:32;;;;;;;15.20;6.10;;;;;;;9.97;51.10;100453.72;18300354;32;20110;-65
2022/03/28 22:26:36;;;;;;;22.83;7.07;;;;;;;9.62;51.80;100449.28;18303062;32;20104;-65
2022/03/28 22:36:41;;;;;;;15.32;6.78;;;;;;;9.74;51.52;100446.69;18307805;32;20102;-65
2022/03/28 22:46:44;;;;;;;13.82;7.35;;;;;;;9.48;52.37;100434.47;18307581;32;20101;-65
2022/03/28 22:56:49;;;;;;;15.68;7.78;;;;;;;9.24;53.92;100419.63;18307263;32;20105;-65
2022/03/28 23:06:52;;;;;;;15.23;7.57;;;;;;;8.95;53.53;100407.38;18306755;32;20461;-65
2022/03/28 23:16:57;;;;;;;15.75;7.82;;;;;;;8.91;53.22;100397.81;18306738;32;20443;-65
2022/03/28 23:27:00;;;;;;;16.45;6.55;;;;;;;8.90;53.42;100383.06;18306009;32;20114;-65
2022/03/28 23:37:04;;;;;;;14.45;7.07;;;;;;;8.52;54.62;100371.56;18304976;32;20102;-65
2022/03/28 23:47:08;;;;;;;16.23;7.53;;;;;;;8.39;54.64;100368.87;18305777;32;20442;-65
2022/03/28 23:57:13;;;;;;;13.65;6.05;;;;;;;7.97;56.04;100360.78;18305535;32;20101;-65
